Time;durP1;ratioP1;P1;durP2;ratioP2;P2;SDS_P1;SDS_P2;PMS_P1;PMS_P2;Temp;Humidity;BMP_temperature;BMP_pressure;BME280_temperature;BME280_humidity;BME280_pressure;Samples;Min_cycle;Max_cycle;Signal;HPM_P1;HPM_P2
2022/07/02 00:00:15;;;;;;;4.67;3.90;;;13.20;1.00;;;;;;5075374;28;20288;-77
2022/07/02 00:02:42;;;;;;;10.83;4.17;;;13.20;1.00;;;;;;5075055;28;20174;-77
2022/07/02 00:05:12;;;;;;;5.60;3.63;;;13.10;1.00;;;;;;5075403;28;20421;-76
2022/07/02 00:07:38;;;;;;;7.47;4.10;;;13.20;1.00;;;;;;5075008;28;20801;-77
2022/07/02 00:10:04;;;;;;;9.40;3.60;;;13.10;1.00;;;;;;5075166;28;20384;-81
2022/07/02 00:12:30;;;;;;;8.10;3.97;;;13.10;1.00;;;;;;5070841;28;20221;-81
2022/07/02 00:14:59;;;;;;;9.30;4.03;;;13.00;1.00;;;;;;5075164;28;20406;-81
2022/07/02 00:17:26;;;;;;;7.80;3.70;;;13.00;1.00;;;;;;5075049;28;20392;-81
2022/07/02 00:19:53;;;;;;;7.50;3.80;;;13.00;1.00;;;;;;5075250;28;20420;-81
2022/07/02 00:22:19;;;;;;;4.90;3.80;;;13.00;1.00;;;;;;5073764;28;20437;-82
2022/07/02 00:24:46;;;;;;;5.87;4.30;;;13.00;1.00;;;;;;5073594;28;20396;-81
2022/07/02 00:27:13;;;;;;;7.33;3.57;;;13.00;1.00;;;;;;5053649;28;20905;-77
2022/07/02 00:30:09;;;;;;;6.50;4.50;;;12.90;1.00;;;;;;5072688;28;20425;-77
2022/07/02 00:32:36;;;;;;;4.70;3.97;;;12.90;1.00;;;;;;5074939;28;20425;-77
2022/07/02 00:35:16;;;;;;;6.80;4.80;;;12.80;1.00;;;;;;5074493;28;20413;-77
2022/07/02 00:37:43;;;;;;;6.90;4.50;;;12.70;1.00;;;;;;5074718;28;20432;-77
2022/07/02 00:40:09;;;;;;;5.67;4.63;;;12.80;1.00;;;;;;5075302;28;20977;-77
2022/07/02 00:42:36;;;;;;;5.80;4.40;;;12.80;1.00;;;;;;5074474;28;20888;-77
2022/07/02 00:45:02;;;;;;;8.53;3.80;;;12.80;1.00;;;;;;5074601;28;20388;-77
2022/07/02 00:47:30;;;;;;;6.13;4.00;;;12.70;1.00;;;;;;5074618;28;20420;-77
2022/07/02 00:49:56;;;;;;;4.63;4.13;;;12.70;1.00;;;;;;5074361;28;20394;-77
2022/07/02 00:52:21;;;;;;;5.13;4.50;;;12.70;1.00;;;;;;5074181;28;20540;-77
2022/07/02 00:54:47;;;;;;;9.10;4.10;;;12.70;1.00;;;;;;5073643;28;20253;-77
2022/07/02 00:57:13;;;;;;;7.23;4.80;;;12.80;1.00;;;;;;5074858;28;20167;-77
2022/07/02 00:59:39;;;;;;;7.33;4.30;;;12.70;1.00;;;;;;5063872;28;20179;-77
2022/07/02 01:02:08;;;;;;;4.33;3.93;;;12.70;1.00;;;;;;5074219;28;21004;-77
2022/07/02 01:04:35;;;;;;;4.83;4.33;;;12.60;1.00;;;;;;5074378;28;20773;-77
2022/07/02 01:07:07;;;;;;;6.27;4.00;;;12.60;1.00;;;;;;5072767;28;20403;-77
2022/07/02 01:12:24;;;;;;;4.60;4.20;;;12.60;1.00;;;;;;5071990;28;20468;-78
2022/07/02 01:14:51;;;;;;;5.53;3.70;;;12.60;1.00;;;;;;5073741;28;20392;-78
2022/07/02 01:17:17;;;;;;;4.50;3.93;;;12.60;1.00;;;;;;5073246;28;20427;-78
2022/07/02 01:19:42;;;;;;;4.30;3.90;;;12.50;1.00;;;;;;5073874;28;20499;-78
2022/07/02 01:22:14;;;;;;;7.13;4.07;;;12.50;1.00;;;;;;5063645;28;20341;-78
2022/07/02 01:24:41;;;;;;;6.73;4.70;;;12.40;1.00;;;;;;5071815;28;20213;-78
2022/07/02 01:27:08;;;;;;;6.17;4.17;;;12.40;1.00;;;;;;5073512;28;20520;-81
2022/07/02 01:29:34;;;;;;;6.60;4.47;;;12.30;1.00;;;;;;5073732;28;20419;-81
2022/07/02 01:32:00;;;;;;;7.63;4.53;;;12.40;1.00;;;;;;5082734;28;20415;-81
2022/07/02 01:34:25;;;;;;;9.30;4.63;;;12.30;1.00;;;;;;5077532;28;20557;-81
2022/07/02 01:36:51;;;;;;;6.60;4.37;;;12.30;1.00;;;;;;5073533;28;20634;-81
2022/07/02 01:39:23;;;;;;;5.67;4.80;;;12.40;1.00;;;;;;5073479;28;20175;-82
2022/07/02 01:41:49;;;;;;;6.10;4.50;;;12.20;1.00;;;;;;5072359;28;20268;-78
2022/07/02 01:44:15;;;;;;;5.67;4.70;;;12.20;1.00;;;;;;5073497;28;20439;-77
2022/07/02 01:46:40;;;;;;;4.97;4.30;;;12.10;1.00;;;;;;5072989;28;20190;-77
2022/07/02 01:49:06;;;;;;;4.77;4.10;;;12.10;1.00;;;;;;5073513;28;20195;-77
2022/07/02 01:51:32;;;;;;;7.47;4.80;;;12.10;1.00;;;;;;5073149;28;20581;-77
2022/07/02 01:53:57;;;;;;;5.27;4.17;;;12.10;1.00;;;;;;5073136;28;20400;-77
2022/07/02 01:56:23;;;;;;;6.43;4.00;;;12.10;1.00;;;;;;5073521;28;20171;-78
2022/07/02 01:58:49;;;;;;;4.33;3.93;;;12.10;1.00;;;;;;5073052;28;20179;-77
2022/07/02 02:01:14;;;;;;;4.83;4.33;;;12.10;1.00;;;;;;5072991;28;20253;-77
2022/07/02 02:03:44;;;;;;;12.03;4.70;;;12.10;1.00;;;;;;5073099;28;20208;-77
2022/07/02 02:06:09;;;;;;;4.97;4.23;;;12.10;1.00;;;;;;5072387;28;20236;-77
2022/07/02 02:08:35;;;;;;;5.07;4.33;;;12.00;1.00;;;;;;5072567;28;20806;-77
2022/07/02 02:11:00;;;;;;;5.40;4.20;;;12.20;1.00;;;;;;5073073;28;20197;-81
2022/07/02 02:13:26;;;;;;;6.90;4.37;;;11.90;1.00;;;;;;5071616;28;20178;-81
2022/07/02 02:15:52;;;;;;;5.60;4.30;;;11.90;1.00;;;;;;5072574;28;20175;-81
2022/07/02 02:18:17;;;;;;;5.00;4.50;;;11.80;1.00;;;;;;5072894;28;20171;-81
2022/07/02 02:20:43;;;;;;;5.50;4.37;;;11.80;1.00;;;;;;5072008;28;20642;-81
2022/07/02 02:23:08;;;;;;;8.70;4.50;;;11.90;1.00;;;;;;5072946;28;20202;-81
2022/07/02 02:25:34;;;;;;;5.73;4.00;;;11.80;1.00;;;;;;5064805;28;20709;-81
2022/07/02 02:28:00;;;;;;;5.63;4.93;;;11.70;1.00;;;;;;5072999;28;20174;-77
2022/07/02 02:30:25;;;;;;;10.47;4.13;;;11.90;1.00;;;;;;5072747;28;20226;-77
2022/07/02 02:32:51;;;;;;;5.03;4.43;;;11.80;1.00;;;;;;5072620;28;20171;-77
2022/07/02 02:35:17;;;;;;;4.10;3.57;;;11.80;1.00;;;;;;5072783;28;20786;-77
2022/07/02 02:37:42;;;;;;;4.40;4.00;;;11.70;1.00;;;;;;5072303;28;20171;-77
2022/07/02 02:40:09;;;;;;;5.93;4.30;;;11.70;1.00;;;;;;5072601;28;20267;-77
2022/07/02 02:42:35;;;;;;;8.50;4.33;;;11.70;1.90;;;;;;5071570;28;20175;-78
2022/07/02 02:45:00;;;;;;;6.17;4.07;;;11.80;3.80;;;;;;5071579;28;20505;-78
2022/07/02 02:47:26;;;;;;;4.53;4.13;;;11.70;3.60;;;;;;5072565;28;20839;-77
2022/07/02 02:49:52;;;;;;;6.53;4.60;;;11.60;4.50;;;;;;5071178;28;20174;-77
2022/07/02 02:52:17;;;;;;;8.70;4.80;;;11.60;5.90;;;;;;5069414;28;20222;-77
2022/07/02 02:54:43;;;;;;;10.47;4.53;;;11.60;7.30;;;;;;5071363;28;20177;-77
2022/07/02 02:57:09;;;;;;;5.20;4.50;;;11.60;7.60;;;;;;5072563;28;20712;-76
2022/07/02 02:59:34;;;;;;;5.13;4.63;;;11.60;6.10;;;;;;5072780;28;20182;-77
2022/07/02 03:02:00;;;;;;;4.70;4.30;;;12.60;8.30;;;;;;5072936;28;20170;-77
2022/07/02 03:04:25;;;;;;;6.97;4.60;;;11.70;7.50;;;;;;5072456;28;20175;-77
2022/07/02 03:06:51;;;;;;;5.23;4.23;;;12.20;8.30;;;;;;5072243;28;20261;-77
2022/07/02 03:09:17;;;;;;;5.10;4.70;;;11.50;7.30;;;;;;5069670;28;20174;-77
2022/07/02 03:11:44;;;;;;;5.10;4.60;;;11.50;10.40;;;;;;5070380;28;20195;-78
2022/07/02 03:14:10;;;;;;;5.90;4.50;;;11.50;11.40;;;;;;5071925;28;20388;-77
2022/07/02 03:16:36;;;;;;;7.80;4.50;;;11.50;10.70;;;;;;5070725;28;20540;-77
2022/07/02 03:19:01;;;;;;;8.40;4.50;;;11.50;8.40;;;;;;5075037;28;20178;-77
2022/07/02 03:21:27;;;;;;;6.60;4.10;;;11.50;8.10;;;;;;5076520;28;20225;-77
2022/07/02 03:23:52;;;;;;;5.53;4.43;;;11.60;6.70;;;;;;5075945;28;20262;-77
2022/07/02 03:26:18;;;;;;;7.53;4.13;;;11.50;5.30;;;;;;5076125;28;20179;-77
2022/07/02 03:28:43;;;;;;;5.07;4.27;;;11.50;4.60;;;;;;5076325;28;20257;-77
2022/07/02 03:31:09;;;;;;;4.50;3.87;;;12.30;4.10;;;;;;5075975;28;20241;-77
2022/07/02 03:33:35;;;;;;;7.90;4.63;;;11.40;4.70;;;;;;5074301;28;20175;-77
2022/07/02 03:36:00;;;;;;;5.47;4.40;;;11.60;4.80;;;;;;5074745;28;20237;-77
2022/07/02 03:38:27;;;;;;;5.73;4.20;;;11.50;4.50;;;;;;5074136;28;20229;-77
2022/07/02 03:40:52;;;;;;;4.80;4.23;;;11.40;4.30;;;;;;5076060;28;20547;-77
2022/07/02 03:43:18;;;;;;;6.30;4.47;;;11.40;4.80;;;;;;5075838;28;20503;-81
2022/07/02 03:45:44;;;;;;;5.60;4.53;;;11.50;5.20;;;;;;5076202;28;20178;-81
2022/07/02 03:48:10;;;;;;;5.00;4.30;;;12.00;9.00;;;;;;5075705;28;20240;-82
2022/07/02 03:50:38;;;;;;;7.63;4.50;;;11.90;10.20;;;;;;5075835;28;20456;-81
2022/07/02 03:53:04;;;;;;;7.63;4.50;;;11.70;10.70;;;;;;5075736;28;20621;-81
2022/07/02 03:55:30;;;;;;;4.90;4.40;;;11.40;9.50;;;;;;5076112;28;20413;-82
2022/07/02 03:57:56;;;;;;;7.80;4.93;;;11.50;8.60;;;;;;5075802;28;20432;-78
2022/07/02 04:00:21;;;;;;;7.43;4.30;;;11.50;9.00;;;;;;5062160;28;20417;-77
2022/07/02 04:02:47;;;;;;;7.10;4.23;;;11.50;8.80;;;;;;5075476;28;20236;-77
2022/07/02 04:05:13;;;;;;;8.33;4.90;;;11.60;9.80;;;;;;5075291;28;20178;-77
2022/07/02 04:07:38;;;;;;;7.10;4.93;;;11.80;13.10;;;;;;5074902;28;20199;-77
2022/07/02 04:10:05;;;;;;;5.80;4.83;;;11.60;11.70;;;;;;5075131;28;20258;-77
2022/07/02 04:12:31;;;;;;;6.73;4.50;;;11.60;10.70;;;;;;5071588;28;20191;-77
2022/07/02 04:14:57;;;;;;;6.83;4.13;;;11.60;9.50;;;;;;5074767;28;20475;-77
2022/07/02 04:17:23;;;;;;;10.10;4.77;;;11.70;9.00;;;;;;5075100;28;20179;-77
2022/07/02 04:19:48;;;;;;;9.70;4.83;;;11.70;9.70;;;;;;5073838;28;20529;-77
2022/07/02 04:22:14;;;;;;;9.17;4.33;;;11.80;9.00;;;;;;5075138;28;20201;-77
2022/07/02 04:24:39;;;;;;;6.80;4.33;;;11.70;7.80;;;;;;5074667;28;20210;-77
2022/07/02 04:27:05;;;;;;;5.60;4.33;;;11.80;2.20;;;;;;5075001;28;20183;-78
2022/07/02 04:29:32;;;;;;;6.70;4.80;;;11.90;4.50;;;;;;5073951;28;20249;-78
2022/07/02 04:31:58;;;;;;;5.00;4.07;;;12.40;5.10;;;;;;5074685;28;20190;-77
2022/07/02 04:34:23;;;;;;;8.53;4.20;;;12.00;4.90;;;;;;5061019;28;20448;-77
2022/07/02 04:36:49;;;;;;;11.13;4.07;;;11.90;5.90;;;;;;5074683;28;20194;-77
2022/07/02 04:39:14;;;;;;;5.20;4.20;;;12.00;5.20;;;;;;5074718;28;20174;-77
2022/07/02 04:41:40;;;;;;;7.17;4.10;;;12.10;5.70;;;;;;5074710;28;20249;-77
2022/07/02 04:44:06;;;;;;;4.10;3.80;;;12.00;6.40;;;;;;5075581;28;20183;-82
2022/07/02 04:46:31;;;;;;;7.70;4.70;;;12.00;10.50;;;;;;5074863;28;20533;-82
2022/07/02 04:48:57;;;;;;;5.80;4.57;;;12.00;12.50;;;;;;5074849;28;20207;-76
2022/07/02 04:51:23;;;;;;;6.30;4.50;;;12.10;15.50;;;;;;5073119;28;20198;-84
2022/07/02 04:53:48;;;;;;;4.93;4.33;;;12.20;15.30;;;;;;5073703;28;20274;-87
2022/07/02 04:56:14;;;;;;;6.43;4.70;;;12.20;16.20;;;;;;5074013;28;20199;-87
2022/07/02 04:58:39;;;;;;;5.13;4.33;;;12.30;18.50;;;;;;5071908;28;20183;-86
2022/07/02 05:01:05;;;;;;;4.47;4.07;;;12.40;20.20;;;;;;5073838;28;20590;-87
2022/07/02 05:03:31;;;;;;;4.83;4.40;;;12.50;20.60;;;;;;5074937;28;20254;-86
2022/07/02 05:05:57;;;;;;;5.87;4.33;;;12.60;19.30;;;;;;5074008;28;20666;-87
2022/07/02 05:08:29;;;;;;;8.77;4.80;;;12.70;20.00;;;;;;5073335;28;20392;-86
2022/07/02 05:10:55;;;;;;;5.47;4.30;;;12.80;20.00;;;;;;5069717;28;20527;-87
2022/07/02 05:13:21;;;;;;;4.93;4.43;;;12.80;21.20;;;;;;5073778;28;20886;-86
2022/07/02 05:15:48;;;;;;;6.13;4.63;;;12.90;21.70;;;;;;5072176;28;20404;-87
2022/07/02 05:18:14;;;;;;;6.67;4.13;;;13.00;24.40;;;;;;5072971;28;20396;-86
2022/07/02 05:20:40;;;;;;;7.40;5.10;;;13.10;24.70;;;;;;5060129;28;20424;-87
2022/07/02 05:23:06;;;;;;;5.80;4.83;;;13.20;24.70;;;;;;5073694;28;20396;-86
2022/07/02 05:25:31;;;;;;;5.33;4.60;;;13.40;25.00;;;;;;5073427;28;20428;-86
2022/07/02 05:27:57;;;;;;;7.17;4.80;;;13.50;22.90;;;;;;5074425;28;20186;-86
2022/07/02 05:30:23;;;;;;;10.77;5.37;;;13.50;25.30;;;;;;5076805;28;20456;-91
2022/07/02 05:32:48;;;;;;;6.10;4.20;;;13.70;25.00;;;;;;5083963;28;20183;-91
2022/07/02 05:35:14;;;;;;;7.10;4.23;;;13.80;24.70;;;;;;5073259;28;20201;-92
2022/07/02 05:37:40;;;;;;;9.40;4.43;;;14.80;27.90;;;;;;5073240;28;20183;-91
2022/07/02 05:40:06;;;;;;;4.97;4.50;;;14.00;27.70;;;;;;5091495;28;20206;-91
2022/07/02 05:42:32;;;;;;;7.00;4.93;;;14.10;28.10;;;;;;5084592;28;20171;-91
2022/07/02 05:45:03;;;;;;;7.73;4.80;;;14.20;26.80;;;;;;5073126;28;20402;-85
2022/07/02 05:47:28;;;;;;;4.67;4.23;;;14.30;26.70;;;;;;5079904;28;20182;-81
2022/07/02 05:49:55;;;;;;;5.27;4.67;;;14.50;25.10;;;;;;5073337;28;20409;-81
2022/07/02 05:52:21;;;;;;;10.20;4.43;;;14.60;25.00;;;;;;5080851;28;20658;-81
2022/07/02 05:54:47;;;;;;;4.80;3.87;;;14.70;20.50;;;;;;5072705;28;20931;-80
2022/07/02 05:57:13;;;;;;;5.80;4.20;;;14.90;17.50;;;;;;5072980;28;20391;-81
2022/07/02 05:59:39;;;;;;;4.80;4.40;;;15.00;16.50;;;;;;5074143;28;20407;-84
2022/07/02 06:02:08;;;;;;;7.87;4.43;;;15.10;13.90;;;;;;5085451;28;20635;-84
2022/07/02 06:04:34;;;;;;;4.20;3.80;;;15.20;9.60;;;;;;5072011;28;20347;-84
2022/07/02 06:09:44;;;;;;;5.07;4.40;;;15.40;2.40;;;;;;5073097;28;20178;-84
2022/07/02 06:12:10;;;;;;;7.50;4.97;;;15.60;1.00;;;;;;5072155;28;20459;-85
2022/07/02 06:14:35;;;;;;;5.87;4.77;;;15.70;1.00;;;;;;5086587;28;20753;-82
2022/07/02 06:17:01;;;;;;;4.40;4.00;;;15.80;1.00;;;;;;5072651;28;20874;-81
2022/07/02 06:19:27;;;;;;;7.30;4.20;;;15.90;1.00;;;;;;5075597;28;20181;-81
2022/07/02 06:21:53;;;;;;;4.23;3.87;;;16.10;1.00;;;;;;5082486;28;20194;-81
2022/07/02 06:24:18;;;;;;;3.50;3.27;;;16.10;1.00;;;;;;5071385;28;20180;-81
2022/07/02 06:26:44;;;;;;;4.83;4.30;;;16.30;1.00;;;;;;5071139;28;20183;-81
2022/07/02 06:29:10;;;;;;;9.27;4.70;;;16.40;1.00;;;;;;5075989;28;20201;-84
2022/07/02 06:31:50;;;;;;;13.80;4.20;;;16.60;1.00;;;;;;5074875;28;20200;-84
2022/07/02 06:34:15;;;;;;;3.70;3.40;;;16.70;1.00;;;;;;5067403;28;20257;-84
2022/07/02 06:36:41;;;;;;;4.50;3.97;;;16.80;1.00;;;;;;5074443;28;20915;-85
2022/07/02 06:39:07;;;;;;;6.40;4.23;;;16.90;1.00;;;;;;5088040;28;20531;-84
2022/07/02 06:44:22;;;;;;;7.13;4.03;;;17.30;1.00;;;;;;5061186;28;20199;-85
2022/07/02 06:46:48;;;;;;;4.73;4.27;;;17.40;1.00;;;;;;5075492;28;20425;-85
2022/07/02 06:49:13;;;;;;;17.83;3.47;;;17.60;1.00;;;;;;5086643;28;20267;-85
2022/07/02 06:55:14;;;;;;;5.00;3.23;;;17.90;1.00;;;;;;5084962;28;20204;-86
2022/07/02 06:57:44;;;;;;;6.70;3.43;;;18.10;1.00;;;;;;5076031;28;20451;-88
2022/07/02 07:00:16;;;;;;;3.83;2.73;;;18.20;1.00;;;;;;5078674;28;20422;-81
2022/07/02 07:02:45;;;;;;;6.97;2.50;;;18.40;1.00;;;;;;5076149;28;20423;-81
2022/07/02 07:05:10;;;;;;;3.33;3.03;;;18.60;1.00;;;;;;5077026;28;20425;-81
2022/07/02 07:07:36;;;;;;;4.00;2.60;;;18.80;1.00;;;;;;5076575;28;20521;-80
2022/07/02 07:10:02;;;;;;;3.10;2.60;;;18.90;1.00;;;;;;5077296;28;20377;-80
2022/07/02 07:12:28;;;;;;;5.07;2.57;;;19.10;1.00;;;;;;5075796;28;20583;-81
2022/07/02 07:14:56;;;;;;;2.60;2.40;;;19.20;1.00;;;;;;5073963;28;20438;-82
2022/07/02 07:17:21;;;;;;;3.30;2.10;;;19.40;1.00;;;;;;5076247;28;20185;-83
2022/07/02 07:19:47;;;;;;;2.90;2.47;;;19.50;1.00;;;;;;5074562;28;20511;-81
2022/07/02 07:22:13;;;;;;;6.10;2.10;;;19.60;1.00;;;;;;5078907;28;20178;-81
2022/07/02 07:24:39;;;;;;;2.33;2.13;;;19.80;1.00;;;;;;5081257;28;20546;-81
2022/07/02 07:27:05;;;;;;;8.33;2.80;;;19.90;1.00;;;;;;5082858;28;20421;-82
2022/07/02 07:29:30;;;;;;;2.50;2.30;;;20.00;1.00;;;;;;5076370;28;20183;-81
2022/07/02 07:31:56;;;;;;;2.83;2.33;;;20.10;1.00;;;;;;5076522;28;20511;-84
2022/07/02 07:34:22;;;;;;;4.93;2.80;;;20.20;1.00;;;;;;5076527;28;20187;-82
2022/07/02 07:43:53;;;;;;;10.33;2.90;;;20.60;1.00;;;;;;5069993;28;20434;-81
2022/07/02 07:46:49;;;;;;;5.80;2.53;;;20.70;1.00;;;;;;5067412;28;20418;-80
2022/07/02 07:49:15;;;;;;;3.17;2.30;;;20.90;1.00;;;;;;5064506;28;20447;-81
2022/07/02 07:51:56;;;;;;;3.30;2.10;;;21.00;1.00;;;;;;5063033;28;20501;-79
2022/07/02 07:54:32;;;;;;;2.80;2.17;;;21.00;1.00;;;;;;5066425;28;20527;-78
2022/07/02 07:56:58;;;;;;;2.90;1.87;;;21.20;1.00;;;;;;5070065;28;20434;-76
2022/07/02 07:59:26;;;;;;;2.03;1.90;;;21.30;1.00;;;;;;5074904;28;20419;-77
2022/07/02 08:02:08;;;;;;;2.33;2.10;;;21.40;1.00;;;;;;5076877;28;20530;-77
2022/07/02 08:04:38;;;;;;;4.00;2.93;;;21.50;1.00;;;;;;5061427;28;20412;-76
2022/07/02 08:07:04;;;;;;;2.00;1.80;;;21.60;1.00;;;;;;5068424;28;20879;-77
2022/07/02 08:09:30;;;;;;;3.57;2.20;;;21.70;1.00;;;;;;5069390;28;20426;-77
2022/07/02 08:11:55;;;;;;;4.10;2.00;;;21.70;1.00;;;;;;5071056;28;20190;-77
2022/07/02 08:14:50;;;;;;;3.20;1.73;;;21.90;1.00;;;;;;5081329;28;20177;-76
2022/07/02 08:17:16;;;;;;;3.07;1.60;;;22.10;1.00;;;;;;5067457;28;20641;-75
2022/07/02 08:19:50;;;;;;;2.13;1.40;;;22.20;1.00;;;;;;5058699;28;20413;-75
2022/07/02 08:22:15;;;;;;;2.73;1.83;;;22.40;1.00;;;;;;5073937;28;20437;-75
2022/07/02 08:24:44;;;;;;;2.40;1.47;;;22.50;1.00;;;;;;5070015;28;20410;-76
2022/07/02 08:27:10;;;;;;;2.00;1.53;;;22.60;1.00;;;;;;5067745;28;20175;-76
2022/07/02 08:29:36;;;;;;;1.60;1.50;;;22.80;1.00;;;;;;5061807;28;20411;-75
2022/07/02 08:32:03;;;;;;;3.37;1.33;;;22.90;1.00;;;;;;5074815;28;20195;-77
2022/07/02 08:34:30;;;;;;;2.70;1.87;;;23.00;1.00;;;;;;5073301;28;20184;-77
2022/07/02 08:36:56;;;;;;;1.40;1.30;;;23.00;1.00;;;;;;5075162;28;20841;-76
2022/07/02 08:39:26;;;;;;;2.20;1.30;;;23.10;1.00;;;;;;5080598;28;20496;-76
2022/07/02 08:41:53;;;;;;;5.63;1.60;;;23.20;1.00;;;;;;5081751;28;20416;-76
2022/07/02 08:44:24;;;;;;;12.33;1.63;;;23.30;1.00;;;;;;5067964;28;20478;-76
2022/07/02 08:46:51;;;;;;;3.00;1.20;;;23.40;1.00;;;;;;5083080;28;20426;-85
2022/07/02 08:49:39;;;;;;;4.13;1.10;;;23.50;1.00;;;;;;5082847;28;20433;-90
2022/07/02 08:52:07;;;;;;;2.07;1.87;;;23.60;1.00;;;;;;5077633;28;20541;-87
2022/07/02 08:54:33;;;;;;;2.40;1.47;;;23.80;1.00;;;;;;5074436;28;20411;-87
2022/07/02 08:57:02;;;;;;;4.37;1.20;;;23.90;1.00;;;;;;5060147;28;20466;-81
2022/07/02 08:59:32;;;;;;;1.23;1.13;;;24.00;1.00;;;;;;5063990;28;20509;-80
2022/07/02 09:02:02;;;;;;;1.27;1.07;;;24.10;1.00;;;;;;5067975;28;20432;-81
2022/07/02 09:04:29;;;;;;;4.50;1.43;;;24.20;1.00;;;;;;5073414;28;20915;-81
2022/07/02 09:06:57;;;;;;;4.43;1.20;;;24.30;1.00;;;;;;5073159;28;20794;-80
2022/07/02 09:09:27;;;;;;;2.10;1.00;;;24.40;1.00;;;;;;5087214;28;20798;-80
2022/07/02 09:11:53;;;;;;;3.20;1.07;;;24.50;1.00;;;;;;5060894;28;20448;-80
2022/07/02 09:14:32;;;;;;;1.33;1.07;;;24.60;1.00;;;;;;5073756;28;20464;-80
2022/07/02 09:16:59;;;;;;;2.80;1.00;;;24.60;1.00;;;;;;5072799;28;20416;-80
2022/07/02 09:19:26;;;;;;;2.87;0.80;;;24.60;1.00;;;;;;5062554;28;20413;-80
2022/07/02 09:21:52;;;;;;;1.37;1.00;;;24.70;1.00;;;;;;5081611;28;20412;-80
2022/07/02 09:24:42;;;;;;;2.40;0.80;;;24.60;1.00;;;;;;5068039;28;20502;-80
2022/07/02 09:27:09;;;;;;;1.23;0.83;;;24.80;1.00;;;;;;5062033;28;20896;-81
2022/07/02 09:29:48;;;;;;;1.27;0.87;;;24.80;1.00;;;;;;5067318;28;20505;-80
2022/07/02 09:32:15;;;;;;;11.63;0.97;;;24.60;1.00;;;;;;5067758;28;20450;-81
2022/07/02 09:34:44;;;;;;;6.40;1.27;;;24.50;1.00;;;;;;5066103;28;20437;-79
2022/07/02 09:37:20;;;;;;;1.10;0.80;;;24.60;1.00;;;;;;5081811;28;20400;-79
2022/07/02 09:39:48;;;;;;;0.80;0.77;;;24.60;1.00;;;;;;5073809;28;20895;-80
2022/07/02 09:42:33;;;;;;;0.77;0.77;;;24.60;1.00;;;;;;5073676;28;20818;-80
2022/07/02 09:45:05;;;;;;;1.70;0.80;;;24.90;1.00;;;;;;5061491;28;20772;-80
2022/07/02 09:47:48;;;;;;;1.57;0.80;;;25.10;1.00;;;;;;5082733;28;20430;-80
2022/07/02 09:50:15;;;;;;;4.33;0.80;;;25.30;1.00;;;;;;5068879;28;20475;-76
2022/07/02 09:52:58;;;;;;;4.23;0.90;;;25.50;1.00;;;;;;5080659;28;20459;-76
2022/07/02 09:55:29;;;;;;;1.13;0.70;;;25.70;1.00;;;;;;5081625;28;20426;-76
2022/07/02 09:58:26;;;;;;;2.80;0.90;;;25.80;1.00;;;;;;5069455;28;20419;-77
2022/07/02 10:00:52;;;;;;;2.47;0.70;;;26.00;1.00;;;;;;5059311;28;20462;-76
2022/07/02 10:03:27;;;;;;;2.60;0.90;;;26.00;1.00;;;;;;5066096;28;20805;-80
2022/07/02 10:06:03;;;;;;;1.90;0.77;;;26.10;1.00;;;;;;5072707;28;20436;-76
2022/07/02 10:08:39;;;;;;;1.67;0.70;;;26.00;1.00;;;;;;5073341;28;20440;-76
2022/07/02 10:11:05;;;;;;;0.70;0.63;;;26.10;1.00;;;;;;5072671;28;20538;-75
2022/07/02 10:13:33;;;;;;;3.37;0.77;;;26.20;1.00;;;;;;5074021;28;20417;-76
2022/07/02 10:16:17;;;;;;;1.50;0.80;;;26.20;1.00;;;;;;5093010;28;20464;-76
2022/07/02 10:18:43;;;;;;;1.93;0.80;;;26.10;1.00;;;;;;5077321;28;20412;-76
2022/07/02 10:21:14;;;;;;;1.33;0.70;;;26.10;1.00;;;;;;5053679;28;20408;-76
2022/07/02 10:23:42;;;;;;;5.10;0.97;;;26.20;1.00;;;;;;5067197;28;20473;-76
2022/07/02 10:26:08;;;;;;;0.60;0.60;;;26.30;1.00;;;;;;5072886;28;20427;-76
2022/07/02 10:28:34;;;;;;;1.10;0.80;;;26.30;1.00;;;;;;5071859;28;20426;-76
2022/07/02 10:31:00;;;;;;;0.70;0.70;;;26.10;1.00;;;;;;5072546;28;20455;-76
2022/07/02 10:33:32;;;;;;;2.83;0.70;;;26.10;1.00;;;;;;5072872;28;20482;-76
2022/07/02 10:35:59;;;;;;;0.97;0.70;;;26.20;1.00;;;;;;5073093;28;20217;-79
2022/07/02 10:38:37;;;;;;;1.00;0.90;;;26.40;1.00;;;;;;5072703;28;20439;-79
2022/07/02 10:41:05;;;;;;;2.93;0.80;;;26.50;1.00;;;;;;5072745;28;20428;-80
2022/07/02 10:43:35;;;;;;;0.70;0.70;;;26.60;1.00;;;;;;5072693;28;20537;-79
2022/07/02 10:46:13;;;;;;;3.17;0.80;;;26.60;1.00;;;;;;5072465;28;20414;-79
2022/07/02 10:48:53;;;;;;;3.23;0.80;;;26.80;1.00;;;;;;5072613;28;20479;-79
2022/07/02 10:51:23;;;;;;;2.83;0.90;;;26.70;1.00;;;;;;5072901;28;20452;-76
2022/07/02 10:53:51;;;;;;;1.43;0.90;;;26.70;1.00;;;;;;5072576;28;20506;-76
2022/07/02 10:56:17;;;;;;;0.90;0.80;;;26.70;1.00;;;;;;5072507;28;20421;-76
2022/07/02 10:58:43;;;;;;;3.83;1.03;;;26.70;1.00;;;;;;5072644;28;20419;-76
2022/07/02 11:01:14;;;;;;;0.90;0.90;;;26.80;1.00;;;;;;5072157;28;20414;-76
2022/07/02 11:03:50;;;;;;;1.00;0.80;;;26.90;1.00;;;;;;5072549;28;20174;-76
2022/07/02 11:06:27;;;;;;;0.90;0.80;;;27.10;1.00;;;;;;5072823;28;20443;-76
2022/07/02 11:08:57;;;;;;;0.90;0.70;;;27.10;1.00;;;;;;5072171;28;20946;-76
2022/07/02 11:11:40;;;;;;;1.90;1.00;;;27.20;1.00;;;;;;5072266;28;20451;-76
2022/07/02 11:14:14;;;;;;;4.00;0.97;;;27.30;1.00;;;;;;5071987;28;20423;-76
2022/07/02 11:16:51;;;;;;;1.30;1.00;;;27.30;1.00;;;;;;5072374;28;20994;-76
2022/07/02 11:19:22;;;;;;;3.87;0.73;;;27.50;1.00;;;;;;5072487;28;20441;-76
2022/07/02 11:21:49;;;;;;;0.80;0.80;;;27.70;1.00;;;;;;5072606;28;20417;-76
2022/07/02 11:24:19;;;;;;;6.83;0.80;;;27.70;1.00;;;;;;5072290;28;20419;-76
2022/07/02 11:26:45;;;;;;;0.80;0.80;;;27.80;1.00;;;;;;5072093;28;20449;-76
2022/07/02 11:29:11;;;;;;;1.00;0.83;;;28.00;1.00;;;;;;5072070;28;20409;-76
2022/07/02 11:31:40;;;;;;;1.70;1.40;;;27.90;1.00;;;;;;5071998;28;20457;-76
2022/07/02 11:34:06;;;;;;;6.87;0.90;;;27.90;1.00;;;;;;5070758;28;20487;-76
2022/07/02 11:36:32;;;;;;;2.20;0.80;;;28.00;1.00;;;;;;5072299;28;20458;-76
2022/07/02 11:38:58;;;;;;;2.13;0.90;;;28.00;1.00;;;;;;5071973;28;20551;-76
2022/07/02 11:41:31;;;;;;;4.20;1.00;;;27.90;1.00;;;;;;5075776;28;20575;-76
2022/07/02 11:43:58;;;;;;;0.80;0.80;;;27.90;1.00;;;;;;5075744;28;20185;-76
2022/07/02 11:46:26;;;;;;;6.30;0.93;;;28.00;1.00;;;;;;5075922;28;20428;-76
2022/07/02 11:48:53;;;;;;;1.17;0.87;;;28.00;1.00;;;;;;5075691;28;20420;-76
2022/07/02 11:51:20;;;;;;;1.53;0.93;;;28.10;1.00;;;;;;5075595;28;20463;-79
2022/07/02 11:53:58;;;;;;;1.57;0.70;;;28.20;1.00;;;;;;5075667;28;20468;-79
2022/07/02 11:56:24;;;;;;;1.00;0.80;;;28.40;1.00;;;;;;5075447;28;20420;-79
2022/07/02 11:58:50;;;;;;;2.33;0.80;;;28.30;1.00;;;;;;5075617;28;20550;-79
2022/07/02 12:01:26;;;;;;;0.83;0.80;;;28.20;1.00;;;;;;5075242;28;20432;-79
2022/07/02 12:03:55;;;;;;;2.47;1.20;;;28.40;1.00;;;;;;5074586;28;20424;-79
2022/07/02 12:06:21;;;;;;;3.40;1.13;;;28.40;1.00;;;;;;5063756;28;20421;-79
2022/07/02 12:08:54;;;;;;;0.80;0.80;;;28.60;1.00;;;;;;5075178;28;20572;-79
2022/07/02 12:11:21;;;;;;;1.87;1.00;;;28.90;1.00;;;;;;5067651;28;20820;-79
2022/07/02 12:13:48;;;;;;;1.30;0.83;;;29.00;1.00;;;;;;5075224;28;20416;-80
2022/07/02 12:16:16;;;;;;;1.43;0.80;;;29.00;1.00;;;;;;5075105;28;20421;-80
2022/07/02 12:18:42;;;;;;;1.93;0.90;;;28.60;1.00;;;;;;5073828;28;20443;-80
2022/07/02 12:21:13;;;;;;;1.23;0.80;;;28.40;1.00;;;;;;5075078;28;20434;-80
2022/07/02 12:23:44;;;;;;;0.70;0.70;;;28.50;1.00;;;;;;5075424;28;20476;-76
2022/07/02 12:26:10;;;;;;;3.20;0.70;;;28.70;1.00;;;;;;5075047;28;20443;-76
2022/07/02 12:31:20;;;;;;;0.80;0.80;;;29.30;1.00;;;;;;5075042;28;20495;-76
2022/07/02 12:33:55;;;;;;;2.00;0.90;;;29.60;1.00;;;;;;5061315;28;20435;-76
2022/07/02 12:36:21;;;;;;;1.90;0.80;;;29.70;1.00;;;;;;5074965;28;20685;-76
2022/07/02 12:38:47;;;;;;;1.53;0.70;;;29.80;1.00;;;;;;5075321;28;20440;-79
2022/07/02 12:41:13;;;;;;;3.87;1.00;;;29.80;1.00;;;;;;5073898;28;20842;-80
2022/07/02 12:43:38;;;;;;;1.27;0.70;;;29.90;1.00;;;;;;5074473;28;20252;-79
2022/07/02 12:46:08;;;;;;;2.93;0.80;;;30.00;1.00;;;;;;5069430;28;20246;-79
2022/07/02 12:48:44;;;;;;;1.07;0.83;;;30.20;1.00;;;;;;5074633;28;20631;-79
2022/07/02 12:51:11;;;;;;;0.80;0.80;;;30.20;1.00;;;;;;5073659;28;20445;-79
2022/07/02 12:53:37;;;;;;;0.97;0.73;;;30.20;1.00;;;;;;5074863;28;20413;-79
2022/07/02 12:56:04;;;;;;;1.37;0.80;;;29.80;1.00;;;;;;5074395;28;20421;-79
2022/07/02 12:58:31;;;;;;;1.47;0.90;;;29.70;1.00;;;;;;5074453;28;20621;-79
2022/07/02 13:00:57;;;;;;;3.63;0.90;;;29.80;1.00;;;;;;5074410;28;20417;-79
2022/07/02 13:03:24;;;;;;;2.87;0.80;;;30.00;1.00;;;;;;5074327;28;20422;-79
2022/07/02 13:05:53;;;;;;;3.23;0.70;;;30.10;1.00;;;;;;5074267;28;20459;-79
2022/07/02 13:08:22;;;;;;;0.93;0.80;;;29.90;1.00;;;;;;5074476;28;20417;-80
2022/07/02 13:10:52;;;;;;;6.43;0.80;;;29.90;1.00;;;;;;5073980;28;20417;-80
2022/07/02 13:13:19;;;;;;;3.23;0.80;;;30.10;1.00;;;;;;5074200;28;20450;-79
2022/07/02 13:15:44;;;;;;;1.90;1.00;;;30.20;1.00;;;;;;5068383;28;20415;-79
2022/07/02 13:18:10;;;;;;;2.10;0.70;;;30.40;1.00;;;;;;5066111;28;20893;-79
2022/07/02 13:20:36;;;;;;;2.00;0.77;;;30.40;1.00;;;;;;5073951;28;20185;-79